Katowice, Poland

10:07 PM CEST on August 31, 2015 (GMT +0200)
Siemianowice - Tuwim | | Change Station
CLOSE
Current Station
Personal Weather Station
Location: Siemianowice %u015Al%u0105skie, %U015BL%U0105SKIE
Elevation: 971 ft
Nearby Weather Stations

Elev 971 ft 50.30 °N, 19.02 °E | Updated 1 minute ago

Clear
Clear
80.2 °F
Feels Like 79 °F
N
0.0
Wind Variable Wind from SSE
Gusts 1.3 mph

Today
High -- | Low -- °F
--% Chance of Precip.
Yesterday
High -- | Low -- °F
Precip. -- in
5:56 AM 7:31 PM
Waning Gibbous, 94% visible
Pressure 29.92 in
Visibility -9999.0 miles
Clouds
Heat Index 79 °F
Dew Point 45 °F
Humidity 29%
Rainfall 0.00 in
Snow Depth Not available.
UV Not available.
Pollen Not available.
Air Quality Not available.
Flu Activity Not available.
METAR EPKT 312000Z VRB02KT CAVOK 22/14 Q1013
Pressure 29.92 in
Visibility -9999.0 miles
Clouds
Heat Index 79 °F
Dew Point 45 °F
Humidity 29%
Rainfall 0.00 in
Snow Depth Not available.
UV Not available.
Pollen Not available.
Air Quality Not available.
Flu Activity Not available.
METAR EPKT 312000Z VRB02KT CAVOK 22/14 Q1013

10-Day Weather Forecast

×

Almanac

Astronomy

Aug. 31, 2015 Rise Set
Actual Time
Civil Twilight
Nautical Twilight
Astronomical Twilight
Moon
Length of Visible Light
Length of Day
Tomorrow will be .
, % of the Moon is Illuminated

Today's Extremes

Country Highs Country Lows

Community

WunderPhotos

Upload Photos

1,851,351 photos uploaded!

WunderBlogs® & News

Nearby

Air Quality

  Air Quality AQ Index Pollutant
Not available.

Snow Depth

Station Depth Elevation

Earthquake Activity

City Distance Mag. Time & Date
Minimum magnitude displayed is 2.5.

Coastal Water Temperatures

Place Temperature

Stations

Nearby Weather Stations

Station Location Temp. Windchill Dew Point Humidity Wind Precip. Elev Updated Type